sensor_id;sensor_type;location;lat;lon;timestamp;P1;durP1;ratioP1;P2;durP2;ratioP2
7211;SDS011;3647;48.792;9.802;2022-08-01T00:01:44;4.07;;;3.40;;
7211;SDS011;3647;48.792;9.802;2022-08-01T00:04:11;4.53;;;3.45;;
7211;SDS011;3647;48.792;9.802;2022-08-01T00:06:39;5.07;;;3.85;;
7211;SDS011;3647;48.792;9.802;2022-08-01T00:09:06;3.58;;;3.28;;
7211;SDS011;3647;48.792;9.802;2022-08-01T00:11:32;3.15;;;2.85;;
7211;SDS011;3647;48.792;9.802;2022-08-01T00:13:59;4.32;;;3.15;;
7211;SDS011;3647;48.792;9.802;2022-08-01T00:16:26;4.97;;;3.70;;
7211;SDS011;3647;48.792;9.802;2022-08-01T00:18:53;3.55;;;3.25;;
7211;SDS011;3647;48.792;9.802;2022-08-01T00:21:20;4.00;;;3.60;;
7211;SDS011;3647;48.792;9.802;2022-08-01T00:23:49;3.97;;;3.58;;
7211;SDS011;3647;48.792;9.802;2022-08-01T00:26:16;4.72;;;3.28;;
7211;SDS011;3647;48.792;9.802;2022-08-01T00:28:42;4.30;;;3.83;;
7211;SDS011;3647;48.792;9.802;2022-08-01T00:31:09;5.70;;;4.28;;
7211;SDS011;3647;48.792;9.802;2022-08-01T00:33:36;4.35;;;3.90;;
7211;SDS011;3647;48.792;9.802;2022-08-01T00:36:03;4.28;;;3.88;;
7211;SDS011;3647;48.792;9.802;2022-08-01T00:38:30;4.63;;;4.15;;
7211;SDS011;3647;48.792;9.802;2022-08-01T00:40:58;4.47;;;4.07;;
7211;SDS011;3647;48.792;9.802;2022-08-01T00:43:25;4.13;;;3.83;;
7211;SDS011;3647;48.792;9.802;2022-08-01T00:45:52;5.13;;;4.15;;
7211;SDS011;3647;48.792;9.802;2022-08-01T00:48:19;4.30;;;3.90;;
7211;SDS011;3647;48.792;9.802;2022-08-01T00:50:45;4.05;;;3.65;;
7211;SDS011;3647;48.792;9.802;2022-08-01T00:53:12;4.40;;;3.78;;
7211;SDS011;3647;48.792;9.802;2022-08-01T00:55:40;5.07;;;3.83;;
7211;SDS011;3647;48.792;9.802;2022-08-01T00:58:08;6.55;;;3.55;;
7211;SDS011;3647;48.792;9.802;2022-08-01T01:00:35;3.90;;;3.50;;
7211;SDS011;3647;48.792;9.802;2022-08-01T01:03:02;3.92;;;3.63;;
7211;SDS011;3647;48.792;9.802;2022-08-01T01:05:29;4.38;;;3.72;;
7211;SDS011;3647;48.792;9.802;2022-08-01T01:08:02;5.00;;;3.42;;
7211;SDS011;3647;48.792;9.802;2022-08-01T01:10:40;3.53;;;3.15;;
7211;SDS011;3647;48.792;9.802;2022-08-01T01:13:15;5.15;;;3.90;;
7211;SDS011;3647;48.792;9.802;2022-08-01T01:15:47;5.00;;;4.53;;
7211;SDS011;3647;48.792;9.802;2022-08-01T01:18:17;3.85;;;3.55;;
7211;SDS011;3647;48.792;9.802;2022-08-01T01:20:50;4.10;;;3.63;;
7211;SDS011;3647;48.792;9.802;2022-08-01T01:23:43;4.75;;;3.78;;
7211;SDS011;3647;48.792;9.802;2022-08-01T01:26:20;3.97;;;3.60;;
7211;SDS011;3647;48.792;9.802;2022-08-01T01:29:06;3.70;;;3.40;;
7211;SDS011;3647;48.792;9.802;2022-08-01T01:31:40;4.05;;;3.65;;
7211;SDS011;3647;48.792;9.802;2022-08-01T01:34:11;3.80;;;3.50;;
7211;SDS011;3647;48.792;9.802;2022-08-01T01:36:41;5.22;;;3.60;;
7211;SDS011;3647;48.792;9.802;2022-08-01T01:39:11;4.47;;;3.40;;
7211;SDS011;3647;48.792;9.802;2022-08-01T01:41:40;4.82;;;3.67;;
7211;SDS011;3647;48.792;9.802;2022-08-01T01:44:09;4.47;;;3.83;;
7211;SDS011;3647;48.792;9.802;2022-08-01T01:46:38;4.60;;;3.75;;
7211;SDS011;3647;48.792;9.802;2022-08-01T01:49:07;5.78;;;3.60;;
7211;SDS011;3647;48.792;9.802;2022-08-01T01:51:35;3.78;;;3.47;;
7211;SDS011;3647;48.792;9.802;2022-08-01T01:54:04;5.20;;;3.65;;
7211;SDS011;3647;48.792;9.802;2022-08-01T01:56:33;4.07;;;3.67;;
7211;SDS011;3647;48.792;9.802;2022-08-01T01:59:01;4.28;;;3.70;;
7211;SDS011;3647;48.792;9.802;2022-08-01T02:01:31;4.63;;;3.38;;
7211;SDS011;3647;48.792;9.802;2022-08-01T02:03:59;3.83;;;3.53;;
7211;SDS011;3647;48.792;9.802;2022-08-01T02:06:28;3.65;;;3.35;;
7211;SDS011;3647;48.792;9.802;2022-08-01T02:08:57;6.20;;;3.50;;
7211;SDS011;3647;48.792;9.802;2022-08-01T02:11:26;3.45;;;3.15;;
7211;SDS011;3647;48.792;9.802;2022-08-01T02:13:55;3.50;;;3.20;;
7211;SDS011;3647;48.792;9.802;2022-08-01T02:16:25;3.47;;;3.17;;
7211;SDS011;3647;48.792;9.802;2022-08-01T02:18:55;4.05;;;3.03;;
7211;SDS011;3647;48.792;9.802;2022-08-01T02:21:25;3.83;;;3.53;;
7211;SDS011;3647;48.792;9.802;2022-08-01T02:23:54;3.92;;;3.13;;
7211;SDS011;3647;48.792;9.802;2022-08-01T02:26:25;4.20;;;3.80;;
7211;SDS011;3647;48.792;9.802;2022-08-01T02:28:56;4.78;;;3.35;;
7211;SDS011;3647;48.792;9.802;2022-08-01T02:31:27;4.03;;;3.63;;
7211;SDS011;3647;48.792;9.802;2022-08-01T02:33:58;5.32;;;3.58;;
7211;SDS011;3647;48.792;9.802;2022-08-01T02:36:28;3.67;;;3.38;;
7211;SDS011;3647;48.792;9.802;2022-08-01T02:38:57;4.10;;;3.70;;
7211;SDS011;3647;48.792;9.802;2022-08-01T02:41:26;3.75;;;3.45;;
7211;SDS011;3647;48.792;9.802;2022-08-01T02:43:56;4.07;;;3.10;;
7211;SDS011;3647;48.792;9.802;2022-08-01T02:46:29;3.50;;;3.20;;
7211;SDS011;3647;48.792;9.802;2022-08-01T02:49:02;5.40;;;3.42;;
7211;SDS011;3647;48.792;9.802;2022-08-01T02:51:32;4.55;;;3.47;;
7211;SDS011;3647;48.792;9.802;2022-08-01T02:54:01;5.28;;;3.80;;
7211;SDS011;3647;48.792;9.802;2022-08-01T02:56:31;4.95;;;3.30;;
7211;SDS011;3647;48.792;9.802;2022-08-01T02:59:03;4.93;;;3.20;;
7211;SDS011;3647;48.792;9.802;2022-08-01T03:01:34;5.07;;;3.40;;
7211;SDS011;3647;48.792;9.802;2022-08-01T03:04:04;3.67;;;3.38;;
7211;SDS011;3647;48.792;9.802;2022-08-01T03:06:32;5.13;;;4.28;;
7211;SDS011;3647;48.792;9.802;2022-08-01T03:09:03;3.50;;;3.20;;
7211;SDS011;3647;48.792;9.802;2022-08-01T03:11:30;3.95;;;3.30;;
7211;SDS011;3647;48.792;9.802;2022-08-01T03:13:59;3.88;;;3.53;;
7211;SDS011;3647;48.792;9.802;2022-08-01T03:16:28;6.07;;;3.63;;
7211;SDS011;3647;48.792;9.802;2022-08-01T03:18:58;3.72;;;3.30;;
7211;SDS011;3647;48.792;9.802;2022-08-01T03:21:29;5.30;;;3.42;;
7211;SDS011;3647;48.792;9.802;2022-08-01T03:23:58;4.40;;;4.00;;
7211;SDS011;3647;48.792;9.802;2022-08-01T03:26:27;3.38;;;3.08;;
7211;SDS011;3647;48.792;9.802;2022-08-01T03:28:57;3.80;;;3.45;;
7211;SDS011;3647;48.792;9.802;2022-08-01T03:31:25;4.90;;;3.50;;
7211;SDS011;3647;48.792;9.802;2022-08-01T03:33:53;4.05;;;3.33;;
7211;SDS011;3647;48.792;9.802;2022-08-01T03:36:21;3.90;;;3.50;;
7211;SDS011;3647;48.792;9.802;2022-08-01T03:38:55;3.97;;;3.67;;
7211;SDS011;3647;48.792;9.802;2022-08-01T03:41:25;3.78;;;3.47;;
7211;SDS011;3647;48.792;9.802;2022-08-01T03:43:57;4.38;;;3.95;;
7211;SDS011;3647;48.792;9.802;2022-08-01T03:46:29;3.90;;;3.53;;
7211;SDS011;3647;48.792;9.802;2022-08-01T03:49:00;4.75;;;4.00;;
7211;SDS011;3647;48.792;9.802;2022-08-01T03:51:31;4.07;;;3.78;;
7211;SDS011;3647;48.792;9.802;2022-08-01T03:54:00;5.00;;;3.20;;
7211;SDS011;3647;48.792;9.802;2022-08-01T03:56:29;3.90;;;3.40;;
7211;SDS011;3647;48.792;9.802;2022-08-01T03:58:58;3.80;;;3.50;;
7211;SDS011;3647;48.792;9.802;2022-08-01T04:01:25;4.10;;;3.63;;
7211;SDS011;3647;48.792;9.802;2022-08-01T04:03:54;7.07;;;3.80;;
7211;SDS011;3647;48.792;9.802;2022-08-01T04:06:21;4.93;;;3.92;;
7211;SDS011;3647;48.792;9.802;2022-08-01T04:08:48;5.15;;;3.75;;
7211;SDS011;3647;48.792;9.802;2022-08-01T04:11:22;4.18;;;3.78;;
7211;SDS011;3647;48.792;9.802;2022-08-01T04:13:50;4.13;;;3.75;;
7211;SDS011;3647;48.792;9.802;2022-08-01T04:16:18;4.28;;;3.70;;
7211;SDS011;3647;48.792;9.802;2022-08-01T04:18:44;3.97;;;3.67;;
7211;SDS011;3647;48.792;9.802;2022-08-01T04:21:11;3.67;;;3.37;;
7211;SDS011;3647;48.792;9.802;2022-08-01T04:26:07;3.70;;;3.17;;
7211;SDS011;3647;48.792;9.802;2022-08-01T04:28:37;5.82;;;3.20;;
7211;SDS011;3647;48.792;9.802;2022-08-01T04:31:07;4.55;;;4.07;;
7211;SDS011;3647;48.792;9.802;2022-08-01T04:33:36;6.32;;;3.10;;
7211;SDS011;3647;48.792;9.802;2022-08-01T04:36:06;4.22;;;3.40;;
7211;SDS011;3647;48.792;9.802;2022-08-01T04:38:37;4.50;;;3.80;;
7211;SDS011;3647;48.792;9.802;2022-08-01T04:41:06;4.28;;;3.35;;
7211;SDS011;3647;48.792;9.802;2022-08-01T04:43:36;3.65;;;3.25;;
7211;SDS011;3647;48.792;9.802;2022-08-01T04:46:05;3.70;;;3.08;;
7211;SDS011;3647;48.792;9.802;2022-08-01T04:48:34;3.60;;;3.10;;
7211;SDS011;3647;48.792;9.802;2022-08-01T04:51:02;4.85;;;2.70;;
7211;SDS011;3647;48.792;9.802;2022-08-01T04:53:29;7.95;;;2.60;;
7211;SDS011;3647;48.792;9.802;2022-08-01T04:55:57;3.63;;;2.55;;
7211;SDS011;3647;48.792;9.802;2022-08-01T04:58:25;2.90;;;2.60;;
7211;SDS011;3647;48.792;9.802;2022-08-01T05:00:53;3.22;;;2.17;;
7211;SDS011;3647;48.792;9.802;2022-08-01T05:03:20;2.70;;;2.47;;
7211;SDS011;3647;48.792;9.802;2022-08-01T05:05:48;3.20;;;2.80;;
7211;SDS011;3647;48.792;9.802;2022-08-01T05:08:15;3.40;;;2.60;;
7211;SDS011;3647;48.792;9.802;2022-08-01T05:10:41;5.55;;;3.10;;
7211;SDS011;3647;48.792;9.802;2022-08-01T05:13:09;3.25;;;2.67;;
7211;SDS011;3647;48.792;9.802;2022-08-01T05:15:35;2.83;;;2.63;;
7211;SDS011;3647;48.792;9.802;2022-08-01T05:18:04;2.95;;;2.75;;
7211;SDS011;3647;48.792;9.802;2022-08-01T05:20:31;3.90;;;3.05;;
7211;SDS011;3647;48.792;9.802;2022-08-01T05:22:58;3.47;;;3.17;;
7211;SDS011;3647;48.792;9.802;2022-08-01T05:25:25;3.65;;;2.60;;
7211;SDS011;3647;48.792;9.802;2022-08-01T05:27:53;2.88;;;2.53;;
7211;SDS011;3647;48.792;9.802;2022-08-01T05:30:23;2.80;;;2.60;;
7211;SDS011;3647;48.792;9.802;2022-08-01T05:32:50;3.10;;;2.83;;
7211;SDS011;3647;48.792;9.802;2022-08-01T05:35:18;2.35;;;2.15;;
7211;SDS011;3647;48.792;9.802;2022-08-01T05:37:45;4.18;;;2.42;;
7211;SDS011;3647;48.792;9.802;2022-08-01T05:40:12;2.90;;;2.20;;
7211;SDS011;3647;48.792;9.802;2022-08-01T05:42:39;3.13;;;2.40;;
7211;SDS011;3647;48.792;9.802;2022-08-01T05:45:06;2.42;;;2.17;;
7211;SDS011;3647;48.792;9.802;2022-08-01T05:47:33;2.47;;;2.20;;
7211;SDS011;3647;48.792;9.802;2022-08-01T05:49:59;3.30;;;2.65;;
7211;SDS011;3647;48.792;9.802;2022-08-01T05:52:28;2.22;;;2.03;;
7211;SDS011;3647;48.792;9.802;2022-08-01T05:54:55;3.45;;;2.88;;
7211;SDS011;3647;48.792;9.802;2022-08-01T05:57:22;3.95;;;2.72;;
7211;SDS011;3647;48.792;9.802;2022-08-01T05:59:49;3.17;;;2.45;;
7211;SDS011;3647;48.792;9.802;2022-08-01T06:02:16;3.08;;;2.65;;
7211;SDS011;3647;48.792;9.802;2022-08-01T06:04:43;2.97;;;2.78;;
7211;SDS011;3647;48.792;9.802;2022-08-01T06:07:10;3.20;;;2.92;;
7211;SDS011;3647;48.792;9.802;2022-08-01T06:09:38;4.35;;;2.60;;
7211;SDS011;3647;48.792;9.802;2022-08-01T06:12:05;4.05;;;2.63;;
7211;SDS011;3647;48.792;9.802;2022-08-01T06:14:32;3.55;;;2.50;;
7211;SDS011;3647;48.792;9.802;2022-08-01T06:16:59;3.15;;;2.80;;
7211;SDS011;3647;48.792;9.802;2022-08-01T06:19:26;4.13;;;2.88;;
7211;SDS011;3647;48.792;9.802;2022-08-01T06:21:53;6.57;;;3.47;;
7211;SDS011;3647;48.792;9.802;2022-08-01T06:24:19;4.63;;;2.70;;
7211;SDS011;3647;48.792;9.802;2022-08-01T06:26:49;4.82;;;3.05;;
7211;SDS011;3647;48.792;9.802;2022-08-01T06:29:16;3.20;;;2.90;;
7211;SDS011;3647;48.792;9.802;2022-08-01T06:31:43;5.45;;;2.70;;
7211;SDS011;3647;48.792;9.802;2022-08-01T06:34:09;3.40;;;2.92;;
7211;SDS011;3647;48.792;9.802;2022-08-01T06:36:36;3.97;;;2.90;;
7211;SDS011;3647;48.792;9.802;2022-08-01T06:39:03;5.10;;;3.17;;
7211;SDS011;3647;48.792;9.802;2022-08-01T06:41:30;3.38;;;2.70;;
7211;SDS011;3647;48.792;9.802;2022-08-01T06:43:58;3.58;;;3.05;;
7211;SDS011;3647;48.792;9.802;2022-08-01T06:46:27;3.80;;;2.65;;
7211;SDS011;3647;48.792;9.802;2022-08-01T06:48:54;3.92;;;2.58;;
7211;SDS011;3647;48.792;9.802;2022-08-01T06:51:21;3.30;;;2.60;;
7211;SDS011;3647;48.792;9.802;2022-08-01T06:53:48;5.10;;;2.75;;
7211;SDS011;3647;48.792;9.802;2022-08-01T06:56:14;7.53;;;2.67;;
7211;SDS011;3647;48.792;9.802;2022-08-01T06:58:41;2.30;;;2.10;;
7211;SDS011;3647;48.792;9.802;2022-08-01T07:01:09;3.05;;;2.45;;
7211;SDS011;3647;48.792;9.802;2022-08-01T07:03:36;2.47;;;2.28;;
7211;SDS011;3647;48.792;9.802;2022-08-01T07:06:03;2.35;;;2.13;;
7211;SDS011;3647;48.792;9.802;2022-08-01T07:08:30;3.85;;;2.25;;
7211;SDS011;3647;48.792;9.802;2022-08-01T07:10:57;3.13;;;2.58;;
7211;SDS011;3647;48.792;9.802;2022-08-01T07:13:25;4.53;;;2.30;;
7211;SDS011;3647;48.792;9.802;2022-08-01T07:15:52;4.25;;;2.00;;
7211;SDS011;3647;48.792;9.802;2022-08-01T07:18:22;2.63;;;2.15;;
7211;SDS011;3647;48.792;9.802;2022-08-01T07:20:50;3.25;;;2.35;;
7211;SDS011;3647;48.792;9.802;2022-08-01T07:23:17;2.83;;;2.40;;
7211;SDS011;3647;48.792;9.802;2022-08-01T07:25:44;1.85;;;1.75;;
7211;SDS011;3647;48.792;9.802;2022-08-01T07:28:11;2.28;;;2.08;;
7211;SDS011;3647;48.792;9.802;2022-08-01T07:30:38;2.58;;;2.28;;
7211;SDS011;3647;48.792;9.802;2022-08-01T07:33:07;2.50;;;2.30;;
7211;SDS011;3647;48.792;9.802;2022-08-01T07:35:35;4.57;;;2.08;;
7211;SDS011;3647;48.792;9.802;2022-08-01T07:38:03;2.40;;;2.20;;
7211;SDS011;3647;48.792;9.802;2022-08-01T07:40:30;2.42;;;2.17;;
7211;SDS011;3647;48.792;9.802;2022-08-01T07:42:57;4.05;;;2.30;;
7211;SDS011;3647;48.792;9.802;2022-08-01T07:45:23;2.70;;;2.22;;
7211;SDS011;3647;48.792;9.802;2022-08-01T07:47:51;2.42;;;2.17;;
7211;SDS011;3647;48.792;9.802;2022-08-01T07:50:18;2.83;;;2.17;;
7211;SDS011;3647;48.792;9.802;2022-08-01T07:52:47;2.08;;;1.88;;
7211;SDS011;3647;48.792;9.802;2022-08-01T07:55:14;1.80;;;1.70;;
7211;SDS011;3647;48.792;9.802;2022-08-01T07:57:40;3.50;;;2.10;;
7211;SDS011;3647;48.792;9.802;2022-08-01T08:00:08;2.50;;;2.30;;
7211;SDS011;3647;48.792;9.802;2022-08-01T08:02:35;2.17;;;1.98;;
7211;SDS011;3647;48.792;9.802;2022-08-01T08:05:02;2.08;;;1.80;;
7211;SDS011;3647;48.792;9.802;2022-08-01T08:07:29;8.52;;;2.20;;
7211;SDS011;3647;48.792;9.802;2022-08-01T08:09:58;2.55;;;2.00;;
7211;SDS011;3647;48.792;9.802;2022-08-01T08:12:25;1.90;;;1.80;;
7211;SDS011;3647;48.792;9.802;2022-08-01T08:14:52;2.33;;;1.80;;
7211;SDS011;3647;48.792;9.802;2022-08-01T08:17:18;2.25;;;1.90;;
7211;SDS011;3647;48.792;9.802;2022-08-01T08:19:45;3.70;;;2.08;;
7211;SDS011;3647;48.792;9.802;2022-08-01T08:22:12;1.98;;;1.83;;
7211;SDS011;3647;48.792;9.802;2022-08-01T08:24:39;1.70;;;1.60;;
7211;SDS011;3647;48.792;9.802;2022-08-01T08:27:07;2.17;;;1.88;;
7211;SDS011;3647;48.792;9.802;2022-08-01T08:29:34;2.05;;;1.70;;
7211;SDS011;3647;48.792;9.802;2022-08-01T08:32:01;2.72;;;2.00;;
7211;SDS011;3647;48.792;9.802;2022-08-01T08:34:28;3.05;;;1.90;;
7211;SDS011;3647;48.792;9.802;2022-08-01T08:36:55;4.45;;;1.80;;
7211;SDS011;3647;48.792;9.802;2022-08-01T08:39:24;1.98;;;1.70;;
7211;SDS011;3647;48.792;9.802;2022-08-01T08:41:51;2.65;;;1.95;;
7211;SDS011;3647;48.792;9.802;2022-08-01T08:44:19;2.17;;;1.80;;
7211;SDS011;3647;48.792;9.802;2022-08-01T08:46:46;2.08;;;1.60;;
7211;SDS011;3647;48.792;9.802;2022-08-01T08:49:17;1.83;;;1.65;;
7211;SDS011;3647;48.792;9.802;2022-08-01T08:51:47;2.85;;;1.60;;
7211;SDS011;3647;48.792;9.802;2022-08-01T08:54:15;2.60;;;1.77;;
7211;SDS011;3647;48.792;9.802;2022-08-01T08:56:44;2.58;;;2.05;;
7211;SDS011;3647;48.792;9.802;2022-08-01T08:59:12;3.13;;;1.67;;
7211;SDS011;3647;48.792;9.802;2022-08-01T09:01:41;1.80;;;1.70;;
7211;SDS011;3647;48.792;9.802;2022-08-01T09:04:09;2.97;;;1.80;;
7211;SDS011;3647;48.792;9.802;2022-08-01T09:06:36;2.85;;;2.03;;
7211;SDS011;3647;48.792;9.802;2022-08-01T09:09:03;1.70;;;1.60;;
7211;SDS011;3647;48.792;9.802;2022-08-01T09:11:31;1.67;;;1.58;;
7211;SDS011;3647;48.792;9.802;2022-08-01T09:14:02;2.55;;;1.70;;
7211;SDS011;3647;48.792;9.802;2022-08-01T09:16:34;2.55;;;1.75;;
7211;SDS011;3647;48.792;9.802;2022-08-01T09:19:07;2.53;;;1.83;;
7211;SDS011;3647;48.792;9.802;2022-08-01T09:21:36;4.63;;;1.77;;
7211;SDS011;3647;48.792;9.802;2022-08-01T09:24:12;2.45;;;2.10;;
7211;SDS011;3647;48.792;9.802;2022-08-01T09:26:40;2.63;;;1.70;;
7211;SDS011;3647;48.792;9.802;2022-08-01T09:29:08;1.98;;;1.63;;
7211;SDS011;3647;48.792;9.802;2022-08-01T09:31:44;4.72;;;1.52;;
7211;SDS011;3647;48.792;9.802;2022-08-01T09:34:14;4.43;;;1.85;;
7211;SDS011;3647;48.792;9.802;2022-08-01T09:36:45;2.75;;;1.88;;
7211;SDS011;3647;48.792;9.802;2022-08-01T09:39:16;1.75;;;1.65;;
7211;SDS011;3647;48.792;9.802;2022-08-01T09:41:43;2.63;;;1.58;;
7211;SDS011;3647;48.792;9.802;2022-08-01T09:44:10;1.70;;;1.60;;
7211;SDS011;3647;48.792;9.802;2022-08-01T09:46:45;2.28;;;1.90;;
7211;SDS011;3647;48.792;9.802;2022-08-01T09:49:30;1.70;;;1.60;;
7211;SDS011;3647;48.792;9.802;2022-08-01T09:52:17;2.10;;;1.70;;
7211;SDS011;3647;48.792;9.802;2022-08-01T09:54:51;1.80;;;1.70;;
7211;SDS011;3647;48.792;9.802;2022-08-01T09:57:19;2.78;;;1.77;;
7211;SDS011;3647;48.792;9.802;2022-08-01T09:59:47;2.58;;;1.50;;
7211;SDS011;3647;48.792;9.802;2022-08-01T10:02:25;2.35;;;1.70;;
7211;SDS011;3647;48.792;9.802;2022-08-01T10:04:56;2.00;;;1.83;;
7211;SDS011;3647;48.792;9.802;2022-08-01T10:07:23;1.60;;;1.50;;
7211;SDS011;3647;48.792;9.802;2022-08-01T10:09:50;1.60;;;1.45;;
7211;SDS011;3647;48.792;9.802;2022-08-01T10:12:17;3.20;;;2.00;;
7211;SDS011;3647;48.792;9.802;2022-08-01T10:14:47;1.75;;;1.65;;
7211;SDS011;3647;48.792;9.802;2022-08-01T10:17:18;1.50;;;1.40;;
7211;SDS011;3647;48.792;9.802;2022-08-01T10:19:46;3.13;;;1.55;;
7211;SDS011;3647;48.792;9.802;2022-08-01T10:22:17;3.08;;;1.90;;
7211;SDS011;3647;48.792;9.802;2022-08-01T10:24:46;3.17;;;1.98;;
7211;SDS011;3647;48.792;9.802;2022-08-01T10:27:14;2.20;;;2.00;;
7211;SDS011;3647;48.792;9.802;2022-08-01T10:29:46;2.47;;;1.75;;
7211;SDS011;3647;48.792;9.802;2022-08-01T10:32:16;2.67;;;2.10;;
7211;SDS011;3647;48.792;9.802;2022-08-01T10:34:44;2.65;;;2.25;;
7211;SDS011;3647;48.792;9.802;2022-08-01T10:37:11;2.60;;;2.20;;
7211;SDS011;3647;48.792;9.802;2022-08-01T10:39:44;3.67;;;1.90;;
7211;SDS011;3647;48.792;9.802;2022-08-01T10:42:24;2.58;;;2.33;;
7211;SDS011;3647;48.792;9.802;2022-08-01T10:44:52;3.47;;;1.90;;
7211;SDS011;3647;48.792;9.802;2022-08-01T10:47:20;4.40;;;1.88;;
7211;SDS011;3647;48.792;9.802;2022-08-01T10:49:58;2.33;;;2.13;;
7211;SDS011;3647;48.792;9.802;2022-08-01T10:52:29;3.30;;;2.30;;
7211;SDS011;3647;48.792;9.802;2022-08-01T10:55:02;4.07;;;2.92;;
7211;SDS011;3647;48.792;9.802;2022-08-01T10:57:41;16.88;;;2.40;;
7211;SDS011;3647;48.792;9.802;2022-08-01T11:00:09;3.13;;;2.83;;
7211;SDS011;3647;48.792;9.802;2022-08-01T11:02:43;3.53;;;2.60;;
7211;SDS011;3647;48.792;9.802;2022-08-01T11:05:25;6.50;;;2.63;;
7211;SDS011;3647;48.792;9.802;2022-08-01T11:07:54;3.58;;;2.53;;
7211;SDS011;3647;48.792;9.802;2022-08-01T11:10:24;5.38;;;2.47;;
7211;SDS011;3647;48.792;9.802;2022-08-01T11:12:56;3.08;;;2.78;;
7211;SDS011;3647;48.792;9.802;2022-08-01T11:15:26;3.60;;;3.30;;
7211;SDS011;3647;48.792;9.802;2022-08-01T11:17:56;4.70;;;3.40;;
7211;SDS011;3647;48.792;9.802;2022-08-01T11:20:24;3.20;;;2.92;;
7211;SDS011;3647;48.792;9.802;2022-08-01T11:26:07;2.85;;;2.63;;
7211;SDS011;3647;48.792;9.802;2022-08-01T11:28:38;3.20;;;2.80;;
7211;SDS011;3647;48.792;9.802;2022-08-01T11:33:56;2.42;;;2.22;;
7211;SDS011;3647;48.792;9.802;2022-08-01T11:36:23;2.25;;;2.13;;
7211;SDS011;3647;48.792;9.802;2022-08-01T11:41:41;2.65;;;2.38;;
7211;SDS011;3647;48.792;9.802;2022-08-01T11:44:09;3.80;;;3.22;;
7211;SDS011;3647;48.792;9.802;2022-08-01T11:46:44;2.65;;;2.45;;
7211;SDS011;3647;48.792;9.802;2022-08-01T11:49:22;2.95;;;2.75;;
7211;SDS011;3647;48.792;9.802;2022-08-01T11:51:57;2.70;;;2.40;;
7211;SDS011;3647;48.792;9.802;2022-08-01T11:54:26;2.53;;;2.30;;
7211;SDS011;3647;48.792;9.802;2022-08-01T11:56:56;2.60;;;2.40;;
7211;SDS011;3647;48.792;9.802;2022-08-01T11:59:23;3.25;;;2.67;;
7211;SDS011;3647;48.792;9.802;2022-08-01T12:01:51;2.60;;;2.10;;
7211;SDS011;3647;48.792;9.802;2022-08-01T12:04:18;2.85;;;2.65;;
7211;SDS011;3647;48.792;9.802;2022-08-01T12:06:45;2.33;;;2.13;;
7211;SDS011;3647;48.792;9.802;2022-08-01T12:09:16;2.40;;;2.20;;
7211;SDS011;3647;48.792;9.802;2022-08-01T12:11:44;2.83;;;2.20;;
7211;SDS011;3647;48.792;9.802;2022-08-01T12:14:16;3.22;;;2.40;;
7211;SDS011;3647;48.792;9.802;2022-08-01T12:16:50;2.35;;;2.22;;
7211;SDS011;3647;48.792;9.802;2022-08-01T12:19:19;2.70;;;2.25;;
7211;SDS011;3647;48.792;9.802;2022-08-01T12:24:32;5.10;;;2.70;;
7211;SDS011;3647;48.792;9.802;2022-08-01T12:26:59;2.90;;;2.60;;
7211;SDS011;3647;48.792;9.802;2022-08-01T12:29:38;3.25;;;2.80;;
7211;SDS011;3647;48.792;9.802;2022-08-01T12:32:25;2.00;;;1.90;;
7211;SDS011;3647;48.792;9.802;2022-08-01T12:34:55;2.78;;;2.50;;
7211;SDS011;3647;48.792;9.802;2022-08-01T12:37:23;4.15;;;2.45;;
7211;SDS011;3647;48.792;9.802;2022-08-01T12:39:50;3.22;;;2.17;;
7211;SDS011;3647;48.792;9.802;2022-08-01T12:42:17;3.20;;;2.53;;
7211;SDS011;3647;48.792;9.802;2022-08-01T12:44:48;2.40;;;2.20;;
7211;SDS011;3647;48.792;9.802;2022-08-01T12:47:17;2.30;;;2.10;;
7211;SDS011;3647;48.792;9.802;2022-08-01T12:49:45;2.85;;;1.92;;
7211;SDS011;3647;48.792;9.802;2022-08-01T12:52:13;2.72;;;2.10;;
7211;SDS011;3647;48.792;9.802;2022-08-01T12:55:04;2.42;;;2.15;;
7211;SDS011;3647;48.792;9.802;2022-08-01T12:57:34;2.38;;;2.17;;
7211;SDS011;3647;48.792;9.802;2022-08-01T13:00:15;1.92;;;1.83;;
7211;SDS011;3647;48.792;9.802;2022-08-01T13:02:44;2.30;;;2.10;;
7211;SDS011;3647;48.792;9.802;2022-08-01T13:05:13;2.63;;;2.25;;
7211;SDS011;3647;48.792;9.802;2022-08-01T13:07:44;2.70;;;1.95;;
7211;SDS011;3647;48.792;9.802;2022-08-01T13:10:13;2.13;;;1.92;;
7211;SDS011;3647;48.792;9.802;2022-08-01T13:12:50;2.40;;;2.20;;
7211;SDS011;3647;48.792;9.802;2022-08-01T13:15:21;2.63;;;2.30;;
7211;SDS011;3647;48.792;9.802;2022-08-01T13:17:55;2.72;;;2.10;;
7211;SDS011;3647;48.792;9.802;2022-08-01T13:20:33;2.17;;;1.98;;
7211;SDS011;3647;48.792;9.802;2022-08-01T13:23:10;2.00;;;1.90;;
7211;SDS011;3647;48.792;9.802;2022-08-01T13:25:46;2.17;;;1.98;;
7211;SDS011;3647;48.792;9.802;2022-08-01T13:28:18;3.05;;;2.00;;
7211;SDS011;3647;48.792;9.802;2022-08-01T13:30:57;2.92;;;1.65;;
7211;SDS011;3647;48.792;9.802;2022-08-01T13:33:26;1.90;;;1.70;;
7211;SDS011;3647;48.792;9.802;2022-08-01T13:35:55;1.80;;;1.70;;
7211;SDS011;3647;48.792;9.802;2022-08-01T13:38:22;3.97;;;1.95;;
7211;SDS011;3647;48.792;9.802;2022-08-01T13:41:03;4.32;;;2.20;;
7211;SDS011;3647;48.792;9.802;2022-08-01T13:43:30;2.10;;;1.90;;
7211;SDS011;3647;48.792;9.802;2022-08-01T13:45:58;3.63;;;1.92;;
7211;SDS011;3647;48.792;9.802;2022-08-01T13:48:25;3.60;;;1.80;;
7211;SDS011;3647;48.792;9.802;2022-08-01T13:50:52;2.10;;;1.90;;
7211;SDS011;3647;48.792;9.802;2022-08-01T13:53:18;1.90;;;1.70;;
7211;SDS011;3647;48.792;9.802;2022-08-01T13:55:46;2.53;;;1.95;;
7211;SDS011;3647;48.792;9.802;2022-08-01T13:58:13;2.95;;;1.70;;
7211;SDS011;3647;48.792;9.802;2022-08-01T14:00:40;1.95;;;1.70;;
7211;SDS011;3647;48.792;9.802;2022-08-01T14:03:08;3.65;;;1.50;;
7211;SDS011;3647;48.792;9.802;2022-08-01T14:05:35;2.10;;;1.45;;
7211;SDS011;3647;48.792;9.802;2022-08-01T14:08:02;1.58;;;1.45;;
7211;SDS011;3647;48.792;9.802;2022-08-01T14:10:29;1.88;;;1.42;;
7211;SDS011;3647;48.792;9.802;2022-08-01T14:12:56;1.42;;;1.33;;
7211;SDS011;3647;48.792;9.802;2022-08-01T14:15:24;2.13;;;1.42;;
7211;SDS011;3647;48.792;9.802;2022-08-01T14:17:51;2.45;;;1.58;;
7211;SDS011;3647;48.792;9.802;2022-08-01T14:20:19;3.30;;;1.20;;
7211;SDS011;3647;48.792;9.802;2022-08-01T14:22:46;1.92;;;1.73;;
7211;SDS011;3647;48.792;9.802;2022-08-01T14:25:13;1.50;;;1.40;;
7211;SDS011;3647;48.792;9.802;2022-08-01T14:27:40;1.60;;;1.50;;
7211;SDS011;3647;48.792;9.802;2022-08-01T14:30:07;2.08;;;1.65;;
7211;SDS011;3647;48.792;9.802;2022-08-01T14:32:35;1.70;;;1.60;;
7211;SDS011;3647;48.792;9.802;2022-08-01T14:35:03;2.03;;;1.70;;
7211;SDS011;3647;48.792;9.802;2022-08-01T14:37:33;1.70;;;1.60;;
7211;SDS011;3647;48.792;9.802;2022-08-01T14:40:00;1.58;;;1.48;;
7211;SDS011;3647;48.792;9.802;2022-08-01T14:42:30;1.70;;;1.60;;
7211;SDS011;3647;48.792;9.802;2022-08-01T14:44:57;2.95;;;1.60;;
7211;SDS011;3647;48.792;9.802;2022-08-01T14:47:24;1.88;;;1.65;;
7211;SDS011;3647;48.792;9.802;2022-08-01T14:49:50;1.77;;;1.58;;
7211;SDS011;3647;48.792;9.802;2022-08-01T14:52:17;1.63;;;1.50;;
7211;SDS011;3647;48.792;9.802;2022-08-01T14:54:46;2.35;;;1.63;;
7211;SDS011;3647;48.792;9.802;2022-08-01T14:57:13;3.00;;;1.88;;
7211;SDS011;3647;48.792;9.802;2022-08-01T14:59:43;1.85;;;1.50;;
7211;SDS011;3647;48.792;9.802;2022-08-01T15:02:10;1.90;;;1.55;;
7211;SDS011;3647;48.792;9.802;2022-08-01T15:04:38;1.65;;;1.55;;
7211;SDS011;3647;48.792;9.802;2022-08-01T15:07:05;2.03;;;1.50;;
7211;SDS011;3647;48.792;9.802;2022-08-01T15:09:32;1.70;;;1.40;;
7211;SDS011;3647;48.792;9.802;2022-08-01T15:12:00;1.40;;;1.30;;
7211;SDS011;3647;48.792;9.802;2022-08-01T15:14:27;2.15;;;1.45;;
7211;SDS011;3647;48.792;9.802;2022-08-01T15:17:11;1.88;;;1.45;;
7211;SDS011;3647;48.792;9.802;2022-08-01T15:19:37;1.70;;;1.52;;
7211;SDS011;3647;48.792;9.802;2022-08-01T15:22:05;1.35;;;1.25;;
7211;SDS011;3647;48.792;9.802;2022-08-01T15:24:32;1.65;;;1.42;;
7211;SDS011;3647;48.792;9.802;2022-08-01T15:27:00;1.58;;;1.48;;
7211;SDS011;3647;48.792;9.802;2022-08-01T15:29:27;2.78;;;1.52;;
7211;SDS011;3647;48.792;9.802;2022-08-01T15:31:54;1.70;;;1.60;;
7211;SDS011;3647;48.792;9.802;2022-08-01T15:34:21;4.93;;;1.65;;
7211;SDS011;3647;48.792;9.802;2022-08-01T15:36:48;7.47;;;5.30;;
7211;SDS011;3647;48.792;9.802;2022-08-01T15:39:15;12.82;;;9.65;;
7211;SDS011;3647;48.792;9.802;2022-08-01T15:41:42;5.60;;;4.00;;